Time;durP1;ratioP1;P1;durP2;ratioP2;P2;SDS_P1;SDS_P2;PMS_P1;PMS_P2;Temp;Humidity;BMP_temperature;BMP_pressure;BME280_temperature;BME280_humidity;BME280_pressure;Samples;Min_cycle;Max_cycle;Signal;HPM_P1;HPM_P2
2022/08/01 00:00:37;;;;;;;;;;;27.80;94.50;;;;;;5125898;28;19908;-55
2022/08/01 00:03:03;;;;;;;;;;;27.70;94.70;;;;;;5126205;28;19919;-53
2022/08/01 00:05:29;;;;;;;;;;;27.60;94.80;;;;;;5125482;28;20083;-54
2022/08/01 00:07:55;;;;;;;;;;;27.60;94.90;;;;;;5125879;28;19908;-61
2022/08/01 00:10:21;;;;;;;;;;;27.60;95.00;;;;;;5125415;28;19977;-49
2022/08/01 00:12:47;;;;;;;;;;;27.70;94.90;;;;;;5125986;28;19908;-55
2022/08/01 00:15:15;;;;;;;;;;;27.70;94.90;;;;;;5125705;28;19915;-52
2022/08/01 00:17:41;;;;;;;;;;;27.70;94.80;;;;;;5125819;28;19922;-53
2022/08/01 00:20:08;;;;;;;;;;;27.70;94.90;;;;;;5125466;28;19915;-53
2022/08/01 00:22:35;;;;;;;;;;;27.70;94.80;;;;;;5125905;28;19919;-52
2022/08/01 00:25:02;;;;;;;;;;;27.70;94.70;;;;;;5125368;28;19910;-51
2022/08/01 00:27:28;;;;;;;;;;;27.60;94.70;;;;;;5125675;28;19912;-53
2022/08/01 00:29:54;;;;;;;;;;;27.60;94.80;;;;;;5125306;28;19962;-55
2022/08/01 00:32:21;;;;;;;;;;;27.60;94.90;;;;;;5124386;28;20012;-53
2022/08/01 00:34:47;;;;;;;;;;;27.70;94.90;;;;;;5124026;28;19944;-56
2022/08/01 00:37:13;;;;;;;;;;;27.60;94.90;;;;;;5124364;28;19912;-50
2022/08/01 00:39:39;;;;;;;;;;;27.70;95.00;;;;;;5124423;28;19942;-50
2022/08/01 00:42:10;;;;;;;;;;;27.70;95.00;;;;;;5125259;28;19958;-53
2022/08/01 00:44:36;;;;;;;;;;;27.70;94.90;;;;;;5124878;28;19925;-51
2022/08/01 00:47:03;;;;;;;;;;;27.70;94.90;;;;;;5125384;28;19922;-50
2022/08/01 00:49:29;;;;;;;;;;;27.70;94.90;;;;;;5125004;28;19931;-55
2022/08/01 00:51:55;;;;;;;;;;;27.70;94.80;;;;;;5124877;28;19911;-56
2022/08/01 00:54:22;;;;;;;;;;;27.70;95.00;;;;;;5124918;28;19919;-50
2022/08/01 00:56:48;;;;;;;;;;;27.60;94.90;;;;;;5125164;28;19934;-52
2022/08/01 00:59:17;;;;;;;;;;;27.70;95.00;;;;;;5124754;28;19904;-53
2022/08/01 01:01:43;;;;;;;;;;;27.70;94.80;;;;;;5124259;28;19915;-51
2022/08/01 01:04:09;;;;;;;;;;;27.60;94.70;;;;;;5124882;28;19904;-53
2022/08/01 01:06:41;;;;;;;;;;;27.60;94.80;;;;;;5123817;28;19911;-54
2022/08/01 01:09:26;;;;;;;;;;;27.60;95.00;;;;;;5123580;28;19946;-55
2022/08/01 01:11:53;;;;;;;;;;;27.70;94.90;;;;;;5122963;28;20208;-54
2022/08/01 01:14:46;;;;;;;;;;;27.70;95.20;;;;;;5123653;28;19903;-57
2022/08/01 01:17:15;;;;;;;;;;;27.70;95.00;;;;;;5115552;28;19923;-56
2022/08/01 01:19:51;;;;;;;;;;;27.60;95.00;;;;;;5113561;28;19924;-54
2022/08/01 01:22:20;;;;;;;;;;;27.60;94.60;;;;;;5100162;28;20213;-52
2022/08/01 01:24:55;;;;;;;;;;;27.60;94.70;;;;;;5103415;28;19951;-54
2022/08/01 01:27:28;;;;;;;;;;;27.70;94.80;;;;;;5101228;28;20093;-56
2022/08/01 01:29:55;;;;;;;;;;;27.70;94.80;;;;;;5102988;28;19918;-54
2022/08/01 01:32:43;;;;;;;;;;;27.70;94.70;;;;;;5084917;28;19916;-52
2022/08/01 01:35:14;;;;;;;;;;;27.70;94.30;;;;;;5102127;28;19908;-54
2022/08/01 01:37:40;;;;;;;;;;;27.70;93.90;;;;;;5100232;28;19979;-54
2022/08/01 01:40:07;;;;;;;;;;;27.70;94.00;;;;;;5102244;28;19958;-54
2022/08/01 01:42:34;;;;;;;;;;;27.70;93.90;;;;;;5101197;28;20019;-56
2022/08/01 01:45:02;;;;;;;;;;;27.60;94.00;;;;;;5102773;28;19908;-53
2022/08/01 01:47:29;;;;;;;;;;;27.60;94.00;;;;;;5102493;28;19918;-51
2022/08/01 01:49:57;;;;;;;;;;;27.60;94.10;;;;;;5102731;28;19916;-53
2022/08/01 01:52:24;;;;;;;;;;;27.60;94.20;;;;;;5100300;28;20083;-55
2022/08/01 01:54:51;;;;;;;;;;;27.60;94.10;;;;;;5103968;28;19912;-54
2022/08/01 01:57:18;;;;;;;;;;;27.60;94.30;;;;;;5107208;28;19912;-53
2022/08/01 01:59:45;;;;;;;;;;;27.60;94.50;;;;;;5105085;28;19911;-53
2022/08/01 02:02:12;;;;;;;;;;;27.60;94.30;;;;;;5107331;28;19913;-55
2022/08/01 02:04:44;;;;;;;;;;;27.60;94.50;;;;;;5107722;28;20171;-54
2022/08/01 02:07:13;;;;;;;;;;;27.60;94.50;;;;;;5107553;28;19950;-53
2022/08/01 02:09:41;;;;;;;;;;;27.60;94.40;;;;;;5107244;28;19912;-55
2022/08/01 02:12:10;;;;;;;;;;;27.60;94.40;;;;;;5107182;28;19916;-54
2022/08/01 02:14:37;;;;;;;;;;;27.60;94.40;;;;;;5107544;28;19911;-56
2022/08/01 02:17:03;;;;;;;;;;;27.60;94.50;;;;;;5098326;28;19958;-55
2022/08/01 02:19:30;;;;;;;;;;;27.60;94.50;;;;;;5113958;28;19916;-56
2022/08/01 02:22:16;;;;;;;;;;;27.60;94.50;;;;;;5127453;28;19916;-57
2022/08/01 02:25:03;;;;;;;;;;;27.70;94.40;;;;;;5126145;27;19903;-53
2022/08/01 02:27:41;;;;;;;;;;;27.60;94.30;;;;;;5137576;27;19912;-60
2022/08/01 02:30:08;;;;;;;;;;;27.60;94.40;;;;;;5137080;27;19912;-61
2022/08/01 02:32:38;;;;;;;;;;;27.70;94.40;;;;;;5127535;27;19939;-54
2022/08/01 02:35:07;;;;;;;;;;;27.60;94.40;;;;;;5134361;27;19907;-55
2022/08/01 02:37:34;;;;;;;;;;;27.70;94.50;;;;;;5132800;27;20099;-55
2022/08/01 02:40:01;;;;;;;;;;;27.70;94.70;;;;;;5117823;28;19903;-54
2022/08/01 02:42:29;;;;;;;;;;;27.70;94.80;;;;;;5134940;27;19912;-53
2022/08/01 02:44:57;;;;;;;;;;;27.70;94.80;;;;;;5130603;27;19907;-56
2022/08/01 02:47:25;;;;;;;;;;;27.70;94.90;;;;;;5133632;27;19923;-55
2022/08/01 02:49:52;;;;;;;;;;;27.60;95.00;;;;;;5132277;27;20192;-53
2022/08/01 02:52:19;;;;;;;;;;;27.70;95.10;;;;;;5133133;27;19979;-54
2022/08/01 02:54:47;;;;;;;;;;;27.70;95.10;;;;;;5133595;27;19945;-55
2022/08/01 02:57:14;;;;;;;;;;;27.70;95.00;;;;;;5135142;27;20135;-53
2022/08/01 02:59:41;;;;;;;;;;;27.60;95.00;;;;;;5132119;27;19903;-55
2022/08/01 03:02:08;;;;;;;;;;;27.70;95.00;;;;;;5132047;27;19960;-59
2022/08/01 03:04:35;;;;;;;;;;;27.70;94.90;;;;;;5134487;27;20214;-56
2022/08/01 03:07:03;;;;;;;;;;;27.60;94.80;;;;;;5132567;27;19919;-55
2022/08/01 03:09:30;;;;;;;;;;;27.60;94.90;;;;;;5127642;27;19904;-57
2022/08/01 03:12:01;;;;;;;;;;;27.60;94.90;;;;;;5141698;27;19922;-55
2022/08/01 03:14:28;;;;;;;;;;;27.70;95.00;;;;;;5147681;27;19942;-56
2022/08/01 03:16:57;;;;;;;;;;;27.70;94.70;;;;;;5136561;27;19978;-57
2022/08/01 03:19:26;;;;;;;;;;;27.70;94.70;;;;;;5115445;28;19916;-58
2022/08/01 03:21:53;;;;;;;;;;;27.60;94.60;;;;;;5108305;28;19912;-55
2022/08/01 03:24:21;;;;;;;;;;;27.60;94.80;;;;;;5126621;28;20100;-55
2022/08/01 03:26:48;;;;;;;;;;;27.50;94.80;;;;;;5126327;28;19935;-56
2022/08/01 03:29:16;;;;;;;;;;;27.60;94.70;;;;;;5126627;28;20208;-57
2022/08/01 03:31:45;;;;;;;;;;;27.60;94.80;;;;;;5126251;28;19922;-52
2022/08/01 03:34:11;;;;;;;;;;;27.60;94.70;;;;;;5126366;28;20223;-55
2022/08/01 03:36:45;;;;;;;;;;;27.60;94.60;;;;;;5126383;28;19953;-57
2022/08/01 03:39:12;;;;;;;;;;;27.60;94.50;;;;;;5126305;28;19910;-53
2022/08/01 03:41:40;;;;;;;;;;;27.50;94.50;;;;;;5126258;28;19912;-55
2022/08/01 03:44:17;;;;;;;;;;;27.50;94.60;;;;;;5125193;28;19908;-55
2022/08/01 03:46:46;;;;;;;;;;;27.50;94.70;;;;;;5126297;28;20001;-55
2022/08/01 03:49:18;;;;;;;;;;;27.50;94.70;;;;;;5125161;28;19975;-54
2022/08/01 03:51:47;;;;;;;;;;;27.40;94.60;;;;;;5126439;28;19907;-53
2022/08/01 03:54:14;;;;;;;;;;;27.40;94.50;;;;;;5126347;28;20095;-57
2022/08/01 03:56:41;;;;;;;;;;;27.40;94.40;;;;;;5126100;28;19911;-61
2022/08/01 03:59:09;;;;;;;;;;;27.40;94.30;;;;;;5126319;28;19961;-54
2022/08/01 04:01:36;;;;;;;;;;;27.50;94.20;;;;;;5125615;28;19915;-53
2022/08/01 04:04:04;;;;;;;;;;;27.50;94.00;;;;;;5125924;28;19943;-58
2022/08/01 04:06:30;;;;;;;;;;;27.40;93.90;;;;;;5126188;28;20122;-52
2022/08/01 04:08:57;;;;;;;;;;;27.40;94.10;;;;;;5125926;28;19912;-53
2022/08/01 04:11:27;;;;;;;;;;;27.40;94.10;;;;;;5125972;28;19943;-53
2022/08/01 04:13:53;;;;;;;;;;;27.40;94.20;;;;;;5126166;28;19912;-54
2022/08/01 04:16:20;;;;;;;;;;;27.40;94.20;;;;;;5125584;28;19983;-54
2022/08/01 04:18:46;;;;;;;;;;;27.40;94.30;;;;;;5125357;28;19919;-54
2022/08/01 04:21:13;;;;;;;;;;;27.40;94.20;;;;;;5125030;28;19911;-52
2022/08/01 04:23:41;;;;;;;;;;;27.30;94.20;;;;;;5076049;28;19913;-58
2022/08/01 04:26:09;;;;;;;;;;;27.40;94.20;;;;;;5080693;28;19912;-53
2022/08/01 04:28:36;;;;;;;;;;;27.40;94.20;;;;;;5099646;28;19912;-54
2022/08/01 04:31:04;;;;;;;;;;;27.40;94.20;;;;;;5107599;28;19911;-57
2022/08/01 04:33:31;;;;;;;;;;;27.30;94.20;;;;;;5113812;28;19904;-53
2022/08/01 04:35:59;;;;;;;;;;;27.30;94.20;;;;;;5105214;28;19911;-56
2022/08/01 04:38:29;;;;;;;;;;;27.30;94.20;;;;;;5105223;28;19904;-57
2022/08/01 04:40:56;;;;;;;;;;;27.30;94.30;;;;;;5105053;28;19912;-54
2022/08/01 04:43:22;;;;;;;;;;;27.30;94.20;;;;;;5105174;28;20096;-55
2022/08/01 04:45:49;;;;;;;;;;;27.30;94.20;;;;;;5105068;28;19927;-54
2022/08/01 04:48:16;;;;;;;;;;;27.30;94.20;;;;;;5105020;28;20127;-58
2022/08/01 04:50:42;;;;;;;;;;;27.30;94.10;;;;;;5104940;28;19908;-54
2022/08/01 04:53:16;;;;;;;;;;;27.30;94.20;;;;;;5105102;28;19904;-53
2022/08/01 04:55:43;;;;;;;;;;;27.30;94.10;;;;;;5104930;28;20151;-53
2022/08/01 04:58:10;;;;;;;;;;;27.30;94.00;;;;;;5104989;28;19904;-55
2022/08/01 05:00:36;;;;;;;;;;;27.30;94.00;;;;;;5105573;28;20184;-54
2022/08/01 05:03:02;;;;;;;;;;;27.30;94.00;;;;;;5104793;28;19912;-53
2022/08/01 05:05:30;;;;;;;;;;;27.30;94.00;;;;;;5105221;28;19954;-54
2022/08/01 05:07:56;;;;;;;;;;;27.30;94.00;;;;;;5104739;28;19904;-55
2022/08/01 05:10:22;;;;;;;;;;;27.30;93.90;;;;;;5104985;28;19916;-56
2022/08/01 05:12:48;;;;;;;;;;;27.30;93.90;;;;;;5104764;28;19908;-53
2022/08/01 05:15:14;;;;;;;;;;;27.30;93.80;;;;;;5105192;28;20096;-54
2022/08/01 05:17:42;;;;;;;;;;;27.30;93.70;;;;;;5104551;28;19904;-53
2022/08/01 05:20:08;;;;;;;;;;;27.30;93.70;;;;;;5117331;28;19927;-54
2022/08/01 05:22:34;;;;;;;;;;;27.30;93.70;;;;;;5124631;28;19908;-54
2022/08/01 05:25:00;;;;;;;;;;;27.30;93.70;;;;;;5125150;28;19919;-55
2022/08/01 05:27:26;;;;;;;;;;;27.30;93.70;;;;;;5125043;28;19971;-57
2022/08/01 05:29:53;;;;;;;;;;;27.20;93.50;;;;;;5124530;28;19916;-55
2022/08/01 05:32:19;;;;;;;;;;;27.20;93.60;;;;;;5124761;28;19904;-54
2022/08/01 05:34:45;;;;;;;;;;;27.30;93.60;;;;;;5125115;28;19911;-55
2022/08/01 05:37:11;;;;;;;;;;;27.20;93.50;;;;;;5124762;28;19953;-54
2022/08/01 05:39:37;;;;;;;;;;;27.20;93.60;;;;;;5124548;28;19915;-54
2022/08/01 05:42:04;;;;;;;;;;;27.20;93.60;;;;;;5124643;28;19935;-55
2022/08/01 05:44:30;;;;;;;;;;;27.20;93.50;;;;;;5124945;28;19918;-55
2022/08/01 05:46:56;;;;;;;;;;;27.20;93.50;;;;;;5124693;28;19950;-53
2022/08/01 05:49:22;;;;;;;;;;;27.20;93.50;;;;;;5124769;28;19918;-53
2022/08/01 05:51:48;;;;;;;;;;;27.20;93.60;;;;;;5124529;28;19908;-53
2022/08/01 05:54:14;;;;;;;;;;;27.20;93.60;;;;;;5124827;28;19961;-57
2022/08/01 05:56:41;;;;;;;;;;;27.20;93.50;;;;;;5124469;28;20267;-53
2022/08/01 05:59:07;;;;;;;;;;;27.20;93.40;;;;;;5124728;28;19918;-55
2022/08/01 06:01:33;;;;;;;;;;;27.10;93.30;;;;;;5124468;28;20006;-55
2022/08/01 06:03:59;;;;;;;;;;;27.20;93.30;;;;;;5124484;28;19958;-53
2022/08/01 06:06:25;;;;;;;;;;;27.10;93.20;;;;;;5124559;28;19950;-53
2022/08/01 06:08:52;;;;;;;;;;;27.20;93.20;;;;;;5124619;28;19908;-54
2022/08/01 06:11:18;;;;;;;;;;;27.20;93.20;;;;;;5124326;28;19935;-53
2022/08/01 06:13:44;;;;;;;;;;;27.20;93.10;;;;;;5124607;28;19912;-52
2022/08/01 06:16:10;;;;;;;;;;;27.10;93.10;;;;;;5124383;28;19941;-54
2022/08/01 06:18:36;;;;;;;;;;;27.10;93.10;;;;;;5124253;28;19931;-59
2022/08/01 06:21:02;;;;;;;;;;;27.10;93.00;;;;;;5104072;28;20197;-53
2022/08/01 06:23:28;;;;;;;;;;;27.10;93.00;;;;;;5104003;28;19904;-53
2022/08/01 06:25:55;;;;;;;;;;;27.10;93.00;;;;;;5103905;28;19908;-53
2022/08/01 06:28:21;;;;;;;;;;;27.10;92.70;;;;;;5103913;28;19911;-55
2022/08/01 06:30:47;;;;;;;;;;;27.10;92.60;;;;;;5103794;28;20214;-55
2022/08/01 06:33:14;;;;;;;;;;;27.10;92.80;;;;;;5103694;28;20192;-58
2022/08/01 06:35:40;;;;;;;;;;;27.10;92.90;;;;;;5103857;28;20334;-53
2022/08/01 06:38:06;;;;;;;;;;;27.10;92.70;;;;;;5103735;28;19904;-54
2022/08/01 06:40:32;;;;;;;;;;;27.10;92.60;;;;;;5104880;28;19950;-54
2022/08/01 06:42:58;;;;;;;;;;;27.10;92.50;;;;;;5107694;28;20192;-53
2022/08/01 06:45:25;;;;;;;;;;;27.10;92.60;;;;;;5107955;28;19908;-53
2022/08/01 06:47:51;;;;;;;;;;;27.00;92.60;;;;;;5107410;28;19914;-55
2022/08/01 06:50:18;;;;;;;;;;;27.00;92.70;;;;;;5107648;28;19912;-53
2022/08/01 06:52:44;;;;;;;;;;;27.00;92.70;;;;;;5107374;28;19908;-56
2022/08/01 06:55:11;;;;;;;;;;;27.00;92.90;;;;;;5107241;28;19908;-53
2022/08/01 06:57:40;;;;;;;;;;;27.00;92.80;;;;;;5107101;28;20097;-52
2022/08/01 07:00:11;;;;;;;;;;;27.00;92.80;;;;;;5107806;28;19908;-53
2022/08/01 07:02:37;;;;;;;;;;;27.00;92.70;;;;;;5107097;28;19912;-56
2022/08/01 07:05:04;;;;;;;;;;;27.00;92.70;;;;;;5106868;28;19908;-53
2022/08/01 07:07:30;;;;;;;;;;;26.90;92.70;;;;;;5107295;28;19908;-54
2022/08/01 07:09:56;;;;;;;;;;;27.00;92.90;;;;;;5107246;28;19985;-56
2022/08/01 07:12:23;;;;;;;;;;;27.00;93.00;;;;;;5106832;28;20133;-53
2022/08/01 07:14:49;;;;;;;;;;;27.00;93.00;;;;;;5107232;28;19948;-53
2022/08/01 07:17:15;;;;;;;;;;;27.00;92.90;;;;;;5106961;28;19908;-53
2022/08/01 07:19:41;;;;;;;;;;;27.00;92.80;;;;;;5115729;28;19961;-54
2022/08/01 07:22:07;;;;;;;;;;;26.90;92.40;;;;;;5127339;28;19911;-54
2022/08/01 07:24:34;;;;;;;;;;;26.90;92.40;;;;;;5127496;28;19917;-54
2022/08/01 07:27:00;;;;;;;;;;;27.00;92.40;;;;;;5127013;28;19927;-58
2022/08/01 07:29:26;;;;;;;;;;;26.90;92.40;;;;;;5127421;28;20145;-54
2022/08/01 07:31:57;;;;;;;;;;;26.90;92.20;;;;;;5127103;28;19907;-52
2022/08/01 07:34:24;;;;;;;;;;;26.90;92.30;;;;;;5127198;28;19912;-53
2022/08/01 07:36:51;;;;;;;;;;;26.90;92.10;;;;;;5126952;28;19987;-53
2022/08/01 07:39:17;;;;;;;;;;;26.90;92.30;;;;;;5108895;28;20138;-56
2022/08/01 07:41:43;;;;;;;;;;;26.90;92.10;;;;;;5126740;28;19904;-55
2022/08/01 07:44:09;;;;;;;;;;;26.90;92.20;;;;;;5127046;28;19973;-52
2022/08/01 07:46:36;;;;;;;;;;;26.90;92.20;;;;;;5126797;28;19904;-52
2022/08/01 07:49:02;;;;;;;;;;;26.90;92.10;;;;;;5126671;28;19912;-52
2022/08/01 07:51:28;;;;;;;;;;;26.90;92.20;;;;;;5126653;28;19982;-56
2022/08/01 07:53:54;;;;;;;;;;;26.90;92.20;;;;;;5126039;28;19974;-54
2022/08/01 07:56:20;;;;;;;;;;;26.90;92.30;;;;;;5126642;28;19961;-53
2022/08/01 07:58:48;;;;;;;;;;;26.90;92.40;;;;;;5126406;28;19912;-58
2022/08/01 08:01:14;;;;;;;;;;;26.90;92.50;;;;;;5126522;28;19904;-56
2022/08/01 08:03:40;;;;;;;;;;;26.90;92.70;;;;;;5126549;28;19912;-53
2022/08/01 08:06:06;;;;;;;;;;;26.90;92.80;;;;;;5126234;28;19911;-53
2022/08/01 08:08:34;;;;;;;;;;;26.90;92.80;;;;;;5126309;28;20215;-54
2022/08/01 08:11:00;;;;;;;;;;;26.80;92.90;;;;;;5126190;28;19914;-52
2022/08/01 08:13:27;;;;;;;;;;;26.80;92.90;;;;;;5126188;28;19904;-54
2022/08/01 08:15:53;;;;;;;;;;;26.80;92.90;;;;;;5126210;28;19904;-53
2022/08/01 08:18:19;;;;;;;;;;;26.80;93.00;;;;;;5125659;28;19908;-55
2022/08/01 08:20:45;;;;;;;;;;;26.90;93.10;;;;;;5125853;28;19916;-52
2022/08/01 08:25:56;;;;;;;;;;;26.80;92.90;;;;;;5125880;28;19949;-52
2022/08/01 08:28:22;;;;;;;;;;;26.80;92.90;;;;;;5125861;28;19958;-53
2022/08/01 08:30:48;;;;;;;;;;;26.80;92.90;;;;;;5125873;28;19949;-53
2022/08/01 08:33:14;;;;;;;;;;;26.80;93.00;;;;;;5124814;28;20138;-57
2022/08/01 08:35:41;;;;;;;;;;;26.80;92.90;;;;;;5125918;28;20081;-54
2022/08/01 08:38:07;;;;;;;;;;;26.80;92.90;;;;;;5125883;28;19908;-53
2022/08/01 08:40:35;;;;;;;;;;;26.80;92.90;;;;;;5125789;28;19912;-57
2022/08/01 08:43:02;;;;;;;;;;;26.80;92.90;;;;;;5125702;28;19939;-56
2022/08/01 08:45:28;;;;;;;;;;;26.80;93.00;;;;;;5126060;28;19911;-56
2022/08/01 08:47:54;;;;;;;;;;;26.80;93.10;;;;;;5125533;28;19904;-53
2022/08/01 08:50:21;;;;;;;;;;;26.70;93.10;;;;;;5125354;28;19916;-55
2022/08/01 08:52:48;;;;;;;;;;;26.70;93.00;;;;;;5125512;28;20192;-54
2022/08/01 08:55:15;;;;;;;;;;;26.70;93.10;;;;;;5125798;28;19943;-52
2022/08/01 08:57:43;;;;;;;;;;;26.70;93.00;;;;;;5125334;28;20100;-52
2022/08/01 09:00:11;;;;;;;;;;;26.70;93.10;;;;;;5125768;28;19950;-52
2022/08/01 09:02:48;;;;;;;;;;;26.80;93.10;;;;;;5125276;28;19956;-56
2022/08/01 09:05:15;;;;;;;;;;;26.70;93.10;;;;;;5124636;28;19912;-58
2022/08/01 09:07:41;;;;;;;;;;;26.70;93.00;;;;;;5125060;28;19910;-52
2022/08/01 09:10:08;;;;;;;;;;;26.70;93.00;;;;;;5125212;28;19916;-54
2022/08/01 09:12:36;;;;;;;;;;;26.70;92.80;;;;;;5125096;28;19938;-53
2022/08/01 09:15:03;;;;;;;;;;;26.70;92.70;;;;;;5125571;28;20122;-53
2022/08/01 09:17:38;;;;;;;;;;;26.70;92.70;;;;;;5124967;28;19904;-55
2022/08/01 09:20:05;;;;;;;;;;;26.70;92.60;;;;;;5124962;28;20164;-55
2022/08/01 09:22:34;;;;;;;;;;;26.70;92.60;;;;;;5124981;28;19903;-52
2022/08/01 09:25:05;;;;;;;;;;;26.70;92.60;;;;;;5125239;28;19984;-53
2022/08/01 09:27:31;;;;;;;;;;;26.70;92.70;;;;;;5124991;28;20103;-56
2022/08/01 09:30:08;;;;;;;;;;;26.60;92.80;;;;;;5125144;28;19920;-52
2022/08/01 09:32:34;;;;;;;;;;;26.60;92.80;;;;;;5124824;28;19903;-57
2022/08/01 09:35:20;;;;;;;;;;;26.60;92.70;;;;;;5124724;28;20199;-54
2022/08/01 09:37:46;;;;;;;;;;;26.60;92.90;;;;;;5124725;28;19911;-54
2022/08/01 09:40:12;;;;;;;;;;;26.60;93.00;;;;;;5125272;28;19911;-53
2022/08/01 09:42:38;;;;;;;;;;;26.50;93.10;;;;;;5116247;28;19903;-56
2022/08/01 09:45:05;;;;;;;;;;;26.50;93.10;;;;;;5124994;28;19919;-54
2022/08/01 09:47:40;;;;;;;;;;;26.50;93.20;;;;;;5124611;28;19904;-56
2022/08/01 09:50:07;;;;;;;;;;;26.50;93.40;;;;;;5124934;28;19916;-56
2022/08/01 09:52:33;;;;;;;;;;;26.40;93.40;;;;;;5124611;28;19903;-53
2022/08/01 09:55:02;;;;;;;;;;;26.40;93.40;;;;;;5125132;28;19919;-54
2022/08/01 09:57:29;;;;;;;;;;;26.40;93.50;;;;;;5124361;28;19904;-53
2022/08/01 09:59:59;;;;;;;;;;;26.40;93.80;;;;;;5125022;28;19912;-52
2022/08/01 10:02:28;;;;;;;;;;;26.40;93.60;;;;;;5124526;28;19907;-53
2022/08/01 10:04:54;;;;;;;;;;;26.30;93.80;;;;;;5124825;28;19918;-56
2022/08/01 10:07:21;;;;;;;;;;;26.30;94.10;;;;;;5124385;28;19904;-54
2022/08/01 10:09:48;;;;;;;;;;;26.30;94.10;;;;;;5124595;28;19911;-54
2022/08/01 10:12:16;;;;;;;;;;;26.30;94.20;;;;;;5124323;28;20184;-57
2022/08/01 10:14:43;;;;;;;;;;;26.30;94.20;;;;;;5124717;28;19927;-55
2022/08/01 10:17:11;;;;;;;;;;;26.30;94.30;;;;;;5127573;28;19904;-58
2022/08/01 10:19:41;;;;;;;;;;;26.30;94.40;;;;;;5128465;28;20215;-56
2022/08/01 10:22:15;;;;;;;;;;;26.30;94.50;;;;;;5110403;28;19946;-56
2022/08/01 10:24:43;;;;;;;;;;;26.20;94.50;;;;;;5128825;28;20184;-54
2022/08/01 10:27:09;;;;;;;;;;;26.20;94.60;;;;;;5128041;28;20073;-53
2022/08/01 10:30:14;;;;;;;;;;;26.20;94.60;;;;;;5128042;28;19912;-55
2022/08/01 10:32:42;;;;;;;;;;;26.20;94.60;;;;;;5025966;28;19909;-53
2022/08/01 10:35:08;;;;;;;;;;;26.20;94.80;;;;;;5025926;28;19955;-54
2022/08/01 10:37:35;;;;;;;;;;;26.20;94.50;;;;;;5075831;28;20194;-53
2022/08/01 10:40:01;;;;;;;;;;;26.20;94.50;;;;;;5128599;28;19911;-54
2022/08/01 10:42:28;;;;;;;;;;;26.20;94.50;;;;;;5109804;28;19942;-62
2022/08/01 10:44:54;;;;;;;;;;;26.20;94.50;;;;;;5128343;28;19951;-53
2022/08/01 10:47:40;;;;;;;;;;;26.20;94.50;;;;;;5128074;28;20177;-54
2022/08/01 10:50:27;;;;;;;;;;;26.20;94.50;;;;;;5127988;28;19923;-55
2022/08/01 10:53:13;;;;;;;;;;;26.20;94.50;;;;;;5127923;28;19904;-58
2022/08/01 10:55:49;;;;;;;;;;;26.20;94.60;;;;;;5127735;28;19912;-60
2022/08/01 10:58:29;;;;;;;;;;;26.10;94.60;;;;;;5127636;28;19997;-54
2022/08/01 11:01:13;;;;;;;;;;;26.10;94.60;;;;;;5127703;28;19910;-58
2022/08/01 11:03:40;;;;;;;;;;;26.10;94.70;;;;;;5109584;28;20212;-54
2022/08/01 11:06:06;;;;;;;;;;;26.10;94.70;;;;;;5127557;28;19938;-53
2022/08/01 11:08:36;;;;;;;;;;;26.10;94.70;;;;;;5127623;28;20188;-58
2022/08/01 11:11:02;;;;;;;;;;;26.10;94.60;;;;;;5127443;28;20013;-58
2022/08/01 11:13:47;;;;;;;;;;;26.10;94.70;;;;;;5126613;28;19915;-55
2022/08/01 11:16:26;;;;;;;;;;;26.10;94.80;;;;;;5127611;28;19904;-54
2022/08/01 11:18:52;;;;;;;;;;;26.10;94.80;;;;;;5108996;28;19912;-54
2022/08/01 11:21:19;;;;;;;;;;;26.10;94.70;;;;;;5127360;28;19904;-54
2022/08/01 11:23:49;;;;;;;;;;;26.10;94.80;;;;;;5126601;28;20088;-53
2022/08/01 11:26:16;;;;;;;;;;;26.10;94.80;;;;;;5126481;28;19907;-59
2022/08/01 11:28:44;;;;;;;;;;;26.00;94.90;;;;;;5126183;28;19912;-51
2022/08/01 11:31:15;;;;;;;;;;;26.00;95.00;;;;;;5127081;28;19915;-52
2022/08/01 11:33:45;;;;;;;;;;;26.00;94.90;;;;;;5127420;28;19980;-52
2022/08/01 11:36:19;;;;;;;;;;;26.00;95.00;;;;;;5127204;28;19941;-54
2022/08/01 11:38:46;;;;;;;;;;;26.00;95.00;;;;;;5127038;28;19951;-53
2022/08/01 11:41:16;;;;;;;;;;;26.00;95.00;;;;;;5126598;28;20268;-53
2022/08/01 11:44:02;;;;;;;;;;;26.00;94.90;;;;;;5126862;28;19912;-56
2022/08/01 11:46:47;;;;;;;;;;;26.10;95.00;;;;;;5126834;28;19949;-56
2022/08/01 11:49:23;;;;;;;;;;;26.10;94.90;;;;;;5125262;28;19912;-59
2022/08/01 11:52:10;;;;;;;;;;;26.10;94.90;;;;;;5124994;28;19907;-56
2022/08/01 11:54:37;;;;;;;;;;;26.10;94.90;;;;;;5124973;28;19927;-56
2022/08/01 11:57:04;;;;;;;;;;;26.10;94.90;;;;;;5124986;28;19904;-54
2022/08/01 11:59:36;;;;;;;;;;;26.10;94.90;;;;;;5124796;28;20516;-54
2022/08/01 12:02:02;;;;;;;;;;;26.10;95.00;;;;;;5125170;28;19970;-54
2022/08/01 12:04:48;;;;;;;;;;;26.10;95.10;;;;;;5126456;28;19919;-54
2022/08/01 12:07:17;;;;;;;;;;;26.10;95.10;;;;;;5108280;28;19916;-55
2022/08/01 12:09:44;;;;;;;;;;;26.10;95.20;;;;;;5126608;28;19908;-51
2022/08/01 12:12:10;;;;;;;;;;;26.10;95.20;;;;;;5126161;28;19907;-52
2022/08/01 12:14:36;;;;;;;;;;;26.20;95.20;;;;;;5126660;28;19916;-53
2022/08/01 12:17:02;;;;;;;;;;;26.10;95.40;;;;;;5126412;28;19908;-55
2022/08/01 12:19:28;;;;;;;;;;;26.20;95.30;;;;;;5125053;28;19927;-59
2022/08/01 12:22:11;;;;;;;;;;;26.20;95.40;;;;;;5126106;28;19943;-52
2022/08/01 12:24:39;;;;;;;;;;;26.10;95.30;;;;;;5125531;28;20033;-56
2022/08/01 12:27:06;;;;;;;;;;;26.20;95.40;;;;;;5125917;28;19966;-52
2022/08/01 12:29:43;;;;;;;;;;;26.10;95.20;;;;;;5126301;28;19986;-53
2022/08/01 12:32:35;;;;;;;;;;;26.20;95.30;;;;;;5126012;28;19915;-52
2022/08/01 12:35:04;;;;;;;;;;;26.20;95.20;;;;;;5125826;28;19938;-52
2022/08/01 12:37:30;;;;;;;;;;;26.20;95.20;;;;;;5125635;28;19904;-52
2022/08/01 12:39:57;;;;;;;;;;;26.20;95.20;;;;;;5125020;28;19982;-52
2022/08/01 12:42:24;;;;;;;;;;;26.20;95.20;;;;;;5125736;28;19952;-52
2022/08/01 12:44:51;;;;;;;;;;;26.20;95.20;;;;;;5125886;28;19918;-55
2022/08/01 12:47:19;;;;;;;;;;;26.20;95.10;;;;;;5125674;28;19927;-52
2022/08/01 12:49:45;;;;;;;;;;;26.20;95.10;;;;;;5125406;28;19942;-52
2022/08/01 12:52:12;;;;;;;;;;;26.20;95.10;;;;;;5125336;28;19908;-55
2022/08/01 12:55:04;;;;;;;;;;;26.20;95.10;;;;;;5117277;28;20207;-55
2022/08/01 12:57:30;;;;;;;;;;;26.20;95.00;;;;;;5120677;28;19904;-52
2022/08/01 13:00:11;;;;;;;;;;;26.20;95.10;;;;;;5125725;28;19911;-52
2022/08/01 13:02:38;;;;;;;;;;;26.20;95.20;;;;;;5125368;28;19956;-56
2022/08/01 13:05:04;;;;;;;;;;;26.30;95.20;;;;;;5125655;28;19908;-52
2022/08/01 13:07:37;;;;;;;;;;;26.30;95.20;;;;;;5125502;28;19908;-55
2022/08/01 13:10:03;;;;;;;;;;;26.30;95.20;;;;;;5124605;28;19943;-55
2022/08/01 13:12:29;;;;;;;;;;;26.30;95.30;;;;;;5124822;28;19931;-53
2022/08/01 13:14:55;;;;;;;;;;;26.30;95.30;;;;;;5124964;28;20180;-55
2022/08/01 13:17:37;;;;;;;;;;;26.30;95.40;;;;;;5124817;28;20006;-53
2022/08/01 13:20:03;;;;;;;;;;;26.30;95.40;;;;;;5106871;28;20085;-53
2022/08/01 13:22:33;;;;;;;;;;;26.30;95.40;;;;;;5125041;28;19908;-53
2022/08/01 13:25:09;;;;;;;;;;;26.30;95.40;;;;;;5125232;28;19943;-53
2022/08/01 13:27:36;;;;;;;;;;;26.30;95.40;;;;;;5124997;28;20100;-53
2022/08/01 13:30:15;;;;;;;;;;;26.30;95.50;;;;;;5125097;28;19919;-53
2022/08/01 13:32:43;;;;;;;;;;;26.30;95.70;;;;;;5106794;28;20073;-52
2022/08/01 13:35:10;;;;;;;;;;;26.30;95.80;;;;;;5106163;28;19912;-53
2022/08/01 13:37:37;;;;;;;;;;;26.30;95.90;;;;;;5123786;28;20172;-53
2022/08/01 13:40:03;;;;;;;;;;;26.30;96.00;;;;;;5125260;28;20092;-53
2022/08/01 13:42:29;;;;;;;;;;;26.30;96.00;;;;;;5124838;28;19904;-55
2022/08/01 13:44:55;;;;;;;;;;;26.30;96.00;;;;;;5125005;28;19912;-56
2022/08/01 13:47:21;;;;;;;;;;;26.30;96.10;;;;;;5124843;28;20096;-53
2022/08/01 13:49:47;;;;;;;;;;;26.40;96.20;;;;;;5124559;28;20200;-63
2022/08/01 13:52:13;;;;;;;;;;;26.40;96.20;;;;;;5128166;28;19972;-53
2022/08/01 13:54:40;;;;;;;;;;;26.40;96.10;;;;;;5129219;28;19912;-52
2022/08/01 13:57:06;;;;;;;;;;;26.40;96.20;;;;;;5129001;28;19903;-54
2022/08/01 13:59:32;;;;;;;;;;;26.40;96.20;;;;;;5129054;28;20100;-53
2022/08/01 14:01:58;;;;;;;;;;;26.40;96.20;;;;;;5128944;28;19967;-53
2022/08/01 14:04:24;;;;;;;;;;;26.40;96.40;;;;;;5128969;28;20087;-55
2022/08/01 14:06:50;;;;;;;;;;;26.40;96.20;;;;;;5128142;28;20102;-59
2022/08/01 14:09:19;;;;;;;;;;;26.40;96.20;;;;;;5127566;28;19920;-54
2022/08/01 14:11:45;;;;;;;;;;;26.40;96.30;;;;;;5124823;28;19914;-52
2022/08/01 14:14:12;;;;;;;;;;;26.40;96.20;;;;;;5127732;28;19919;-57
2022/08/01 14:16:39;;;;;;;;;;;26.40;96.10;;;;;;5127823;28;19966;-52
2022/08/01 14:19:05;;;;;;;;;;;26.50;96.10;;;;;;5121090;28;20105;-53
2022/08/01 14:21:31;;;;;;;;;;;26.50;96.10;;;;;;5106926;28;20210;-51
2022/08/01 14:23:57;;;;;;;;;;;26.50;96.10;;;;;;5106822;28;19954;-59
2022/08/01 14:26:23;;;;;;;;;;;26.60;96.10;;;;;;5106766;28;20219;-53